createdAt,value
2023-03-06T00:01:04.620Z,62.19
2023-03-06T00:03:34.508Z,62.11
2023-03-06T00:06:03.891Z,62.68
2023-03-06T00:08:32.887Z,62.87
2023-03-06T00:11:01.880Z,62.31
2023-03-06T00:13:32.616Z,63.01
2023-03-06T00:16:01.820Z,63.05
2023-03-06T00:18:30.844Z,63.14
2023-03-06T00:20:59.966Z,63.13
2023-03-06T00:23:29.086Z,62.74
2023-03-06T00:25:58.048Z,63.55
2023-03-06T00:28:27.064Z,63.71
2023-03-06T00:30:55.977Z,62.94
2023-03-06T00:33:24.922Z,62.25
2023-03-06T00:35:56.023Z,64.05
2023-03-06T00:38:28.225Z,65.95
2023-03-06T00:40:58.081Z,64.96
2023-03-06T00:43:27.243Z,64.03
2023-03-06T00:45:56.446Z,64.20
2023-03-06T00:48:25.377Z,63.21
2023-03-06T00:50:54.722Z,63.07
2023-03-06T00:53:23.579Z,63.69
2023-03-06T00:55:52.745Z,65.14
2023-03-06T00:58:21.765Z,64.32
2023-03-06T01:00:51.020Z,63.47
2023-03-06T01:03:19.752Z,63.95
2023-03-06T01:05:48.585Z,64.73
2023-03-06T01:08:17.296Z,65.75
2023-03-06T01:10:46.237Z,66.05
2023-03-06T01:13:14.983Z,65.71
2023-03-06T01:15:43.948Z,65.47
2023-03-06T01:18:12.764Z,65.45
2023-03-06T01:20:41.588Z,64.17
2023-03-06T01:23:10.427Z,69.53
2023-03-06T01:25:39.337Z,68.23
2023-03-06T01:28:08.135Z,67.88
2023-03-06T01:30:37.745Z,67.78
2023-03-06T01:33:06.487Z,67.22
2023-03-06T01:35:38.214Z,66.22
2023-03-06T01:38:07.760Z,65.18
2023-03-06T01:40:39.168Z,69.00
2023-03-06T01:43:26.602Z,67.91
2023-03-06T01:46:29.192Z,66.77
2023-03-06T01:49:21.630Z,66.96
2023-03-06T01:52:00.936Z,66.65
2023-03-06T01:54:45.039Z,66.41
2023-03-06T01:57:20.985Z,69.83
2023-03-06T01:59:56.150Z,69.84
2023-03-06T02:02:27.059Z,68.37
2023-03-06T02:04:55.850Z,69.31
2023-03-06T02:07:25.340Z,68.22
2023-03-06T02:09:54.119Z,67.33
2023-03-06T02:12:25.786Z,68.90
2023-03-06T02:14:54.824Z,67.52
2023-03-06T02:17:24.855Z,68.49
2023-03-06T02:20:25.267Z,68.13
2023-03-06T02:23:53.839Z,67.33
2023-03-06T02:26:24.185Z,65.65
2023-03-06T02:28:52.961Z,67.12
2023-03-06T02:31:33.218Z,67.49
2023-03-06T02:34:04.507Z,66.11
2023-03-06T02:36:42.139Z,66.20
2023-03-06T02:39:11.565Z,66.84
2023-03-06T02:41:40.442Z,67.19
2023-03-06T02:44:09.385Z,67.36
2023-03-06T02:46:38.100Z,66.96
2023-03-06T02:49:06.902Z,66.79
2023-03-06T02:51:36.345Z,65.26
2023-03-06T02:54:05.077Z,66.94
2023-03-06T02:56:33.834Z,67.49
2023-03-06T02:59:02.836Z,67.25
2023-03-06T03:01:31.966Z,67.42
2023-03-06T03:04:00.765Z,67.53
2023-03-06T03:06:29.616Z,67.32
2023-03-06T03:08:59.278Z,67.78
2023-03-06T03:11:28.216Z,67.75
2023-03-06T03:13:57.301Z,66.84
2023-03-06T03:16:26.329Z,67.21
2023-03-06T03:18:58.114Z,67.61
2023-03-06T03:21:28.028Z,67.69
2023-03-06T03:23:57.254Z,68.20
2023-03-06T03:26:27.030Z,68.20
2023-03-06T03:29:00.968Z,67.83
2023-03-06T03:31:29.877Z,70.41
2023-03-06T03:33:59.073Z,70.44
2023-03-06T03:36:30.647Z,69.99
2023-03-06T03:38:59.521Z,69.59
2023-03-06T03:41:28.370Z,69.08
2023-03-06T03:43:57.518Z,68.42
2023-03-06T03:46:26.949Z,67.99
2023-03-06T03:48:56.771Z,67.75
2023-03-06T03:51:25.572Z,68.68
2023-03-06T03:53:57.239Z,69.28
2023-03-06T03:56:27.580Z,69.91
2023-03-06T03:59:09.961Z,69.16
2023-03-06T04:01:44.976Z,68.89
2023-03-06T04:04:13.829Z,68.24
2023-03-06T04:06:42.784Z,68.64
2023-03-06T04:09:11.851Z,68.78
2023-03-06T04:11:40.785Z,68.00
2023-03-06T04:14:10.029Z,67.50
2023-03-06T04:16:39.051Z,67.03
2023-03-06T04:19:08.120Z,66.17
2023-03-06T04:21:37.116Z,65.95
2023-03-06T04:24:07.172Z,65.81
2023-03-06T04:26:37.296Z,65.59
2023-03-06T04:29:06.403Z,65.57
2023-03-06T04:31:35.174Z,65.48
2023-03-06T04:34:04.579Z,65.05
2023-03-06T04:36:35.329Z,65.15
2023-03-06T04:39:07.772Z,65.30
2023-03-06T04:41:36.664Z,65.41
2023-03-06T04:44:05.797Z,65.78
2023-03-06T04:46:35.546Z,65.63
2023-03-06T04:49:04.582Z,65.62
2023-03-06T04:51:33.334Z,65.73
2023-03-06T04:54:02.016Z,65.76
2023-03-06T04:56:31.413Z,66.03
2023-03-06T04:58:59.982Z,65.22
2023-03-06T05:01:28.543Z,65.36
2023-03-06T05:03:57.138Z,65.67
2023-03-06T05:06:25.674Z,65.64
2023-03-06T05:08:54.295Z,66.26
2023-03-06T05:11:23.033Z,66.95
2023-03-06T05:13:51.943Z,70.09
2023-03-06T05:16:21.012Z,68.70
2023-03-06T05:18:50.772Z,69.49
2023-03-06T05:21:19.421Z,69.04
2023-03-06T05:23:47.970Z,68.72
2023-03-06T05:26:16.645Z,68.91
2023-03-06T05:28:45.275Z,69.16
2023-03-06T05:31:13.907Z,69.30
2023-03-06T05:33:42.337Z,69.01
2023-03-06T05:36:10.972Z,69.77
2023-03-06T05:38:39.429Z,69.91
2023-03-06T05:41:13.197Z,69.39
2023-03-06T05:43:42.291Z,70.16
2023-03-06T05:46:11.815Z,72.11
2023-03-06T05:48:40.612Z,71.47
2023-03-06T05:51:11.210Z,70.16
2023-03-06T05:53:39.768Z,69.26
2023-03-06T05:56:11.451Z,70.81
2023-03-06T05:58:40.267Z,70.65
2023-03-06T06:01:18.716Z,69.21
2023-03-06T06:03:47.625Z,69.28
2023-03-06T06:06:16.057Z,70.33
2023-03-06T06:08:44.599Z,70.14
2023-03-06T06:11:14.144Z,70.38
2023-03-06T06:13:42.622Z,69.83
2023-03-06T06:16:16.008Z,69.06
2023-03-06T06:18:44.887Z,69.67
2023-03-06T06:21:17.382Z,68.58
2023-03-06T06:23:46.335Z,68.45
2023-03-06T06:26:14.954Z,68.69
2023-03-06T06:28:43.469Z,68.00
2023-03-06T06:31:13.782Z,67.33
2023-03-06T06:33:42.357Z,67.01
2023-03-06T06:36:21.416Z,66.83
2023-03-06T06:38:54.071Z,66.68
2023-03-06T06:44:15.596Z,66.58
2023-03-06T06:49:34.476Z,65.63
2023-03-06T06:52:04.529Z,65.94
2023-03-06T06:54:35.095Z,65.68
2023-03-06T06:57:03.587Z,65.64
2023-03-06T06:59:32.082Z,64.85
2023-03-06T07:02:00.611Z,64.01
2023-03-06T07:04:29.117Z,64.56
2023-03-06T07:06:58.348Z,64.60
2023-03-06T07:09:26.821Z,64.01
2023-03-06T07:11:55.219Z,63.54
2023-03-06T07:14:23.695Z,62.47
2023-03-06T07:16:52.198Z,63.13
2023-03-06T07:19:20.798Z,61.21
2023-03-06T07:21:49.336Z,62.81
2023-03-06T07:24:17.863Z,61.67
2023-03-06T07:26:49.320Z,59.92
2023-03-06T07:29:17.713Z,58.27
2023-03-06T07:31:47.095Z,57.12
2023-03-06T07:34:16.413Z,58.52
2023-03-06T07:36:44.953Z,55.78
2023-03-06T07:39:13.485Z,56.46
2023-03-06T07:41:42.093Z,55.65
2023-03-06T07:44:10.597Z,53.22
2023-03-06T07:46:39.212Z,50.14
2023-03-06T07:49:07.794Z,48.84
2023-03-06T07:51:36.284Z,51.01
2023-03-06T07:54:04.775Z,49.57
2023-03-06T07:56:35.178Z,52.14
2023-03-06T07:59:03.833Z,53.24
2023-03-06T08:01:32.294Z,53.67
2023-03-06T08:04:02.119Z,53.32
2023-03-06T08:06:30.706Z,53.33
2023-03-06T08:08:59.767Z,53.21
2023-03-06T08:11:30.793Z,53.71
2023-03-06T08:14:00.766Z,52.41
2023-03-06T08:16:30.920Z,53.03
2023-03-06T08:18:59.821Z,53.60
2023-03-06T08:21:28.933Z,53.04
2023-03-06T08:23:57.601Z,52.70
2023-03-06T08:26:29.814Z,51.96
2023-03-06T08:29:01.138Z,51.70
2023-03-06T08:31:38.470Z,52.54
2023-03-06T08:34:12.727Z,51.92
2023-03-06T08:36:41.354Z,49.28
2023-03-06T08:39:10.447Z,48.32
2023-03-06T08:41:39.362Z,44.41
2023-03-06T08:44:08.113Z,43.71
2023-03-06T08:46:37.494Z,44.73
2023-03-06T08:49:06.009Z,45.39
2023-03-06T08:51:34.581Z,45.72
2023-03-06T08:54:03.381Z,44.86
2023-03-06T08:56:34.452Z,44.86
2023-03-06T08:59:05.821Z,41.39
2023-03-06T09:01:37.811Z,40.56
2023-03-06T09:04:10.910Z,38.86
2023-03-06T09:06:43.111Z,38.68
2023-03-06T09:09:12.751Z,39.55
2023-03-06T09:11:41.274Z,39.86
2023-03-06T09:14:09.799Z,41.17
2023-03-06T09:16:38.516Z,39.23
2023-03-06T09:19:07.285Z,38.17
2023-03-06T09:21:35.817Z,39.22
2023-03-06T09:24:04.563Z,38.98
2023-03-06T09:26:45.054Z,39.09
2023-03-06T09:29:16.471Z,39.53
2023-03-06T09:31:46.148Z,38.83
2023-03-06T09:34:14.784Z,38.13
2023-03-06T09:36:55.913Z,38.12
2023-03-06T09:39:26.462Z,37.13
2023-03-06T09:41:57.419Z,38.03
2023-03-06T09:44:32.431Z,37.81
2023-03-06T09:47:34.627Z,37.36
2023-03-06T09:50:44.847Z,36.72
2023-03-06T09:53:33.401Z,35.99
2023-03-06T09:56:18.242Z,36.34
2023-03-06T09:58:56.137Z,35.20
2023-03-06T10:01:28.559Z,35.43
2023-03-06T10:04:31.010Z,35.13
2023-03-06T10:07:25.641Z,34.24
2023-03-06T10:10:02.177Z,34.13
2023-03-06T10:12:41.365Z,35.45
2023-03-06T10:15:34.448Z,36.47
2023-03-06T10:18:04.088Z,37.11
2023-03-06T10:20:43.434Z,37.31
2023-03-06T10:23:47.850Z,37.86
2023-03-06T10:26:20.694Z,38.60
2023-03-06T10:29:13.560Z,38.70
2023-03-06T10:31:49.585Z,39.54
2023-03-06T10:34:33.195Z,37.97
2023-03-06T10:37:17.849Z,38.36
2023-03-06T10:39:48.597Z,35.98
2023-03-06T10:42:17.840Z,36.88
2023-03-06T10:44:46.263Z,36.81
2023-03-06T10:47:37.822Z,36.72
2023-03-06T10:50:30.759Z,36.02
2023-03-06T10:53:19.171Z,36.64
2023-03-06T10:56:09.971Z,37.48
2023-03-06T10:58:38.397Z,36.82
2023-03-06T11:01:29.168Z,36.80
2023-03-06T11:04:29.338Z,37.05
2023-03-06T11:07:14.604Z,36.93
2023-03-06T11:10:16.678Z,36.59
2023-03-06T11:12:56.654Z,37.92
2023-03-06T11:15:27.683Z,37.91
2023-03-06T11:18:07.897Z,38.33
2023-03-06T11:21:24.353Z,38.47
2023-03-06T11:23:54.620Z,38.26
2023-03-06T11:26:51.976Z,38.14
2023-03-06T11:29:42.585Z,37.98
2023-03-06T11:32:24.284Z,38.25
2023-03-06T11:34:59.428Z,37.33
2023-03-06T11:38:21.195Z,37.58
2023-03-06T11:41:00.425Z,37.93
2023-03-06T11:44:14.682Z,38.42
2023-03-06T11:46:53.129Z,38.86
2023-03-06T11:49:44.472Z,39.01
2023-03-06T11:52:23.953Z,39.41
2023-03-06T11:54:57.882Z,39.13
2023-03-06T11:57:39.650Z,39.12
2023-03-06T12:00:20.228Z,39.41
2023-03-06T12:03:09.676Z,38.75
2023-03-06T12:05:51.408Z,39.09
2023-03-06T12:08:40.187Z,38.78
2023-03-06T12:14:02.459Z,38.51
2023-03-06T12:16:48.986Z,38.95
2023-03-06T12:19:28.818Z,38.24
2023-03-06T12:22:21.589Z,37.23
2023-03-06T12:25:35.411Z,37.97
2023-03-06T12:28:34.355Z,36.37
2023-03-06T12:31:38.116Z,36.31
2023-03-06T12:34:12.484Z,36.01
2023-03-06T12:37:01.563Z,36.23
2023-03-06T12:40:11.033Z,35.52
2023-03-06T12:42:54.206Z,35.53
2023-03-06T12:45:37.224Z,35.54
2023-03-06T12:48:21.267Z,35.67
2023-03-06T12:50:50.683Z,35.64
2023-03-06T12:53:32.037Z,35.79
2023-03-06T12:56:02.709Z,35.52
2023-03-06T12:58:31.225Z,36.13
2023-03-06T13:01:27.449Z,35.81
2023-03-06T13:04:27.357Z,34.99
2023-03-06T13:07:35.499Z,34.79
2023-03-06T13:10:15.782Z,34.35
2023-03-06T13:13:24.173Z,34.33
2023-03-06T13:16:43.843Z,33.10
2023-03-06T13:19:26.669Z,33.75
2023-03-06T13:21:55.087Z,33.30
2023-03-06T13:24:24.769Z,34.02
2023-03-06T13:27:08.925Z,33.03
2023-03-06T13:29:37.395Z,33.47
2023-03-06T13:32:17.642Z,32.75
2023-03-06T13:34:50.244Z,33.41
2023-03-06T13:37:23.387Z,33.87
2023-03-06T13:40:00.466Z,33.68
2023-03-06T13:42:32.681Z,33.75
2023-03-06T13:45:44.990Z,33.83
2023-03-06T13:48:46.571Z,32.83
2023-03-06T13:51:27.347Z,33.33
2023-03-06T13:54:19.606Z,32.84
2023-03-06T13:57:48.520Z,32.24
2023-03-06T14:01:13.348Z,34.05
2023-03-06T14:04:18.467Z,33.56
2023-03-06T14:06:53.516Z,32.85
2023-03-06T14:09:32.842Z,32.20
2023-03-06T14:12:15.051Z,31.32
2023-03-06T14:14:50.969Z,32.26
2023-03-06T14:17:39.265Z,32.66
2023-03-06T14:20:17.984Z,31.93
2023-03-06T14:22:46.708Z,31.90
2023-03-06T14:25:31.517Z,30.59
2023-03-06T14:28:12.320Z,30.36
2023-03-06T14:30:51.259Z,29.56
2023-03-06T14:33:34.751Z,29.83
2023-03-06T14:36:09.816Z,31.15
2023-03-06T14:38:48.838Z,31.33
2023-03-06T14:41:32.945Z,32.09
2023-03-06T14:44:22.316Z,32.77
2023-03-06T14:46:57.341Z,33.53
2023-03-06T14:49:27.012Z,33.61
2023-03-06T14:52:00.735Z,32.71
2023-03-06T14:54:34.742Z,30.57
2023-03-06T14:57:13.024Z,30.42
2023-03-06T14:59:49.621Z,30.33
2023-03-06T15:02:23.611Z,29.47
2023-03-06T15:04:58.392Z,28.90
2023-03-06T15:07:33.063Z,28.76
2023-03-06T15:10:01.537Z,28.83
2023-03-06T15:12:38.808Z,28.79
2023-03-06T15:15:08.231Z,28.74
2023-03-06T15:17:45.393Z,29.49
2023-03-06T15:20:52.451Z,29.28
2023-03-06T15:23:35.593Z,30.54
2023-03-06T15:26:36.962Z,31.30
2023-03-06T15:29:11.489Z,32.16
2023-03-06T15:31:45.252Z,32.04
2023-03-06T15:34:23.782Z,32.56
2023-03-06T15:36:55.895Z,32.74
2023-03-06T15:39:33.182Z,33.96
2023-03-06T15:42:26.535Z,36.49
2023-03-06T15:44:58.223Z,36.97
2023-03-06T15:47:26.753Z,36.43
2023-03-06T15:49:55.543Z,37.74
2023-03-06T15:52:24.190Z,43.02
2023-03-06T15:54:52.783Z,43.52
2023-03-06T15:57:31.299Z,43.55
2023-03-06T16:00:01.606Z,42.33
2023-03-06T16:02:39.803Z,45.25
2023-03-06T16:05:18.735Z,44.22
2023-03-06T16:07:48.366Z,46.56
2023-03-06T16:10:20.974Z,46.05
2023-03-06T16:12:54.168Z,47.97
2023-03-06T16:15:30.904Z,50.61
2023-03-06T16:18:00.375Z,50.98
2023-03-06T16:20:29.851Z,51.40
2023-03-06T16:22:58.402Z,49.28
2023-03-06T16:25:28.418Z,48.88
2023-03-06T16:27:58.439Z,49.29
2023-03-06T16:30:35.502Z,51.70
2023-03-06T16:33:05.042Z,48.07
2023-03-06T16:35:33.588Z,51.49
2023-03-06T16:38:02.051Z,52.11
2023-03-06T16:40:37.767Z,54.47
2023-03-06T16:43:06.206Z,53.96
2023-03-06T16:45:41.073Z,52.85
2023-03-06T16:48:15.936Z,53.80
2023-03-06T16:50:45.446Z,54.44
2023-03-06T16:53:15.481Z,54.29
2023-03-06T16:55:44.286Z,53.73
2023-03-06T16:58:12.953Z,54.49
2023-03-06T17:00:41.665Z,51.91
2023-03-06T17:03:10.080Z,52.61
2023-03-06T17:05:39.023Z,55.36
2023-03-06T17:08:07.495Z,57.97
2023-03-06T17:10:39.124Z,55.44
2023-03-06T17:13:09.005Z,53.28
2023-03-06T17:15:37.536Z,53.76
2023-03-06T17:18:06.532Z,53.05
2023-03-06T17:20:35.328Z,53.65
2023-03-06T17:23:03.744Z,57.14
2023-03-06T17:25:34.616Z,59.96
2023-03-06T17:28:03.292Z,58.98
2023-03-06T17:30:31.701Z,58.30
2023-03-06T17:33:00.865Z,58.37
2023-03-06T17:35:29.492Z,59.85
2023-03-06T17:37:58.188Z,57.74
2023-03-06T17:40:26.953Z,55.09
2023-03-06T17:42:55.417Z,55.14
2023-03-06T17:45:24.008Z,55.47
2023-03-06T17:47:55.946Z,57.82
2023-03-06T17:50:24.519Z,55.71
2023-03-06T17:52:52.955Z,56.57
2023-03-06T17:55:21.569Z,55.19
2023-03-06T17:57:52.811Z,55.74
2023-03-06T18:00:23.027Z,55.77
2023-03-06T18:02:51.761Z,58.21
2023-03-06T18:05:21.883Z,58.91
2023-03-06T18:07:50.562Z,58.61
2023-03-06T18:10:19.078Z,58.45
2023-03-06T18:12:47.520Z,58.52
2023-03-06T18:15:16.214Z,59.17
2023-03-06T18:17:45.295Z,58.59
2023-03-06T18:20:14.341Z,59.18
2023-03-06T18:22:42.822Z,59.33
2023-03-06T18:25:11.359Z,59.35
2023-03-06T18:27:39.936Z,60.53
2023-03-06T18:30:09.392Z,60.95
2023-03-06T18:32:38.155Z,61.34
2023-03-06T18:35:09.322Z,60.46
2023-03-06T18:37:37.982Z,61.46
2023-03-06T18:40:07.548Z,60.51
2023-03-06T18:42:35.993Z,60.62
2023-03-06T18:45:05.327Z,62.11
2023-03-06T18:47:33.852Z,62.72
2023-03-06T18:50:05.296Z,63.26
2023-03-06T18:52:35.061Z,63.78
2023-03-06T18:55:04.172Z,63.45
2023-03-06T18:57:32.592Z,63.22
2023-03-06T19:00:01.806Z,63.13
2023-03-06T19:02:30.617Z,62.06
2023-03-06T19:04:59.444Z,60.21
2023-03-06T19:07:28.406Z,60.02
2023-03-06T19:09:57.000Z,61.29
2023-03-06T19:12:25.408Z,63.49
2023-03-06T19:14:53.802Z,64.45
2023-03-06T19:17:24.849Z,63.70
2023-03-06T19:19:55.149Z,62.82
2023-03-06T19:22:23.757Z,62.99
2023-03-06T19:24:52.264Z,60.46
2023-03-06T19:27:20.888Z,60.62
2023-03-06T19:29:49.385Z,60.49
2023-03-06T19:32:18.154Z,60.97
2023-03-06T19:34:49.300Z,60.53
2023-03-06T19:37:18.024Z,60.76
2023-03-06T19:39:46.460Z,61.63
2023-03-06T19:42:14.939Z,61.84
2023-03-06T19:44:43.434Z,63.58
2023-03-06T19:47:11.923Z,60.88
2023-03-06T19:49:40.476Z,60.59
2023-03-06T19:52:09.063Z,60.87
2023-03-06T19:54:37.647Z,61.41
2023-03-06T19:57:06.078Z,61.77
2023-03-06T19:59:34.456Z,61.07
2023-03-06T20:02:02.899Z,62.04
2023-03-06T20:04:35.207Z,62.05
2023-03-06T20:07:05.081Z,61.52
2023-03-06T20:09:34.133Z,61.27
2023-03-06T20:12:03.194Z,62.82
2023-03-06T20:14:31.687Z,63.64
2023-03-06T20:17:00.402Z,63.92
2023-03-06T20:19:29.158Z,62.55
2023-03-06T20:21:57.579Z,63.17
2023-03-06T20:24:26.208Z,62.34
2023-03-06T20:26:57.629Z,62.30
2023-03-06T20:29:28.218Z,60.74
2023-03-06T20:31:58.055Z,59.88
2023-03-06T20:34:26.889Z,60.06
2023-03-06T20:36:56.912Z,60.68
2023-03-06T20:39:25.510Z,61.33
2023-03-06T20:41:54.009Z,61.58
2023-03-06T20:44:23.242Z,61.22
2023-03-06T20:46:52.257Z,62.05
2023-03-06T20:49:21.689Z,63.04
2023-03-06T20:51:50.483Z,62.11
2023-03-06T20:54:18.987Z,62.53
2023-03-06T20:56:49.168Z,62.16
2023-03-06T20:59:17.887Z,62.23
2023-03-06T21:01:48.039Z,62.67
2023-03-06T21:04:16.953Z,64.42
2023-03-06T21:06:47.136Z,64.09
2023-03-06T21:09:17.166Z,64.53
2023-03-06T21:11:46.541Z,64.58
2023-03-06T21:14:15.587Z,66.28
2023-03-06T21:16:44.821Z,66.16
2023-03-06T21:19:13.540Z,65.70
2023-03-06T21:21:42.108Z,66.52
2023-03-06T21:24:11.068Z,64.06
2023-03-06T21:26:39.486Z,64.13
2023-03-06T21:29:08.265Z,63.79
2023-03-06T21:31:36.702Z,64.72
2023-03-06T21:34:06.438Z,62.75
2023-03-06T21:36:34.923Z,62.97
2023-03-06T21:39:06.418Z,62.70
2023-03-06T21:41:35.205Z,63.06
2023-03-06T21:44:05.841Z,62.76
2023-03-06T21:46:34.675Z,61.73
2023-03-06T21:49:05.402Z,61.38
2023-03-06T21:51:34.186Z,60.94
2023-03-06T21:54:03.056Z,60.93
2023-03-06T21:56:33.532Z,60.21
2023-03-06T21:59:02.193Z,61.02
2023-03-06T22:01:31.060Z,62.55
2023-03-06T22:04:00.389Z,62.09
2023-03-06T22:06:31.231Z,64.72
2023-03-06T22:09:00.785Z,63.67
2023-03-06T22:11:36.894Z,62.68
2023-03-06T22:14:06.507Z,62.37
2023-03-06T22:16:35.082Z,62.12
2023-03-06T22:19:03.767Z,63.33
2023-03-06T22:21:32.302Z,63.78
2023-03-06T22:24:00.769Z,64.28
2023-03-06T22:26:31.620Z,62.84
2023-03-06T22:29:00.116Z,63.64
2023-03-06T22:31:29.256Z,65.38
2023-03-06T22:34:00.455Z,64.61
2023-03-06T22:36:30.972Z,64.62
2023-03-06T22:39:02.101Z,63.69
2023-03-06T22:41:31.071Z,64.81
2023-03-06T22:44:01.962Z,64.25
2023-03-06T22:46:32.071Z,65.24
2023-03-06T22:49:02.011Z,66.48
2023-03-06T22:51:30.540Z,66.26
2023-03-06T22:53:59.194Z,65.84
2023-03-06T22:56:27.678Z,66.25
2023-03-06T22:58:57.870Z,66.68
2023-03-06T23:01:33.737Z,65.21
2023-03-06T23:04:05.025Z,64.10
2023-03-06T23:06:43.276Z,63.71
2023-03-06T23:09:20.773Z,63.70
2023-03-06T23:12:09.158Z,63.21
2023-03-06T23:14:56.353Z,63.45
2023-03-06T23:17:42.939Z,62.76
2023-03-06T23:20:30.027Z,62.03
2023-03-06T23:23:16.826Z,61.40
2023-03-06T23:25:45.197Z,61.12
2023-03-06T23:28:13.720Z,60.82
2023-03-06T23:30:42.491Z,60.67
2023-03-06T23:33:11.660Z,60.45
2023-03-06T23:35:40.215Z,60.43
2023-03-06T23:38:08.711Z,60.60
2023-03-06T23:40:38.408Z,60.24
2023-03-06T23:43:06.913Z,60.24
2023-03-06T23:45:35.433Z,60.57
2023-03-06T23:48:08.053Z,60.67
2023-03-06T23:50:41.221Z,60.77
2023-03-06T23:53:09.728Z,61.15
2023-03-06T23:55:49.919Z,60.91
2023-03-06T23:58:19.943Z,60.48
